KPNA

Ralph Wenz Field Airport

Pinedale, Wyoming, USA
METAR KPNA 121810Z AUTO 32006KT 1SM -SN BKN015 BKN020 OVC025 M05/M06 A2985 RMK AO2
Observed Flight Rules
Dec-12 @ 18:10 UTC (39 minutes ago) Instrument Flight Rules
Wind Visibility Clouds Conditions
320° at 6 knots 1 miles
  • Broken at 1,500' AGL
  • Broken at 2,000' AGL
  • Overcast at 2,500' AGL
  • Light Snow
Temperatures Readings
Current -5°C / 23°F
Dewpoint -6°C / 21°F
Humidity 93%
Altimeter 29.85" Hg
Pressure 1011 hPa
Elevation 2160
METAR KPNA 121810Z AUTO 32006KT 1SM -SN BKN015 BKN020 OVC025 M05/M06 A2985 RMK AO2
Observed Flight Rules
Dec-12 @ 18:10 UTC
(39 minutes ago)
IFR
Wind Visibility
320° at 6 knots 1 miles
Clouds
  • Broken at 1,500' AGL
  • Broken at 2,000' AGL
  • Overcast at 2,500' AGL
Conditions
  • Light Snow
Temperature Dewpoint
-5°C / 23°F -6°C / 21°F
Humidity Altimeter Pressure
93% 29.85" Hg 1011 hPa